Terminal Aerodrome Forecast
Issued by NWS

Home | Current Version | Previous Version | Text Only | Print | Product List | Glossary On
Versions: 1 2 3 4 5 6 7 8 9 10 11 12 13 14 15
000
FTUS43 KDVN 161100
TAFBRL
TAF
KBRL 161139Z 1612/1712 16013KT P6SM BKN120
     FM161500 16020G28KT P6SM BKN150
     FM161800 18024G32KT P6SM BKN200
     FM170000 14014G24KT P6SM BKN150
     FM170400 23012KT P6SM BKN100=

USA.gov is the U.S. government's official web portal to all federal, state and local government web resources and services.